createdAt,value
2023-02-23T00:00:44.912Z,21.13
2023-02-23T00:05:38.068Z,19.53
2023-02-23T00:10:33.445Z,19.03
2023-02-23T00:15:26.908Z,18.17
2023-02-23T00:20:25.248Z,18.00
2023-02-23T00:25:18.593Z,18.90
2023-02-23T00:30:13.722Z,18.40
2023-02-23T00:35:11.317Z,16.47
2023-02-23T00:40:05.706Z,16.40
2023-02-23T00:44:58.376Z,16.07
2023-02-23T00:49:54.675Z,15.50
2023-02-23T00:54:47.281Z,15.83
2023-02-23T00:59:40.152Z,16.73
2023-02-23T01:04:32.756Z,16.40
2023-02-23T01:09:28.921Z,16.17
2023-02-23T01:14:22.085Z,17.07
2023-02-23T01:19:14.986Z,15.17
2023-02-23T01:24:07.921Z,15.27
2023-02-23T01:29:03.933Z,16.67
2023-02-23T01:33:57.040Z,15.13
2023-02-23T01:38:50.147Z,16.30
2023-02-23T01:43:56.274Z,16.10
2023-02-23T01:48:50.803Z,15.90
2023-02-23T01:53:45.493Z,17.00
2023-02-23T01:58:40.906Z,16.00
2023-02-23T02:03:36.306Z,16.83
2023-02-23T02:08:31.625Z,17.70
2023-02-23T02:13:26.968Z,17.50
2023-02-23T02:18:23.409Z,16.57
2023-02-23T02:23:33.013Z,16.47
2023-02-23T02:28:38.564Z,15.07
2023-02-23T02:33:43.910Z,15.07
2023-02-23T02:38:42.951Z,13.70
2023-02-23T02:43:40.604Z,13.37
2023-02-23T02:48:38.614Z,12.13
2023-02-23T02:53:35.615Z,12.70
2023-02-23T02:58:30.323Z,12.87
2023-02-23T03:03:47.961Z,13.50
2023-02-23T03:09:01.437Z,12.70
2023-02-23T03:14:21.271Z,13.70
2023-02-23T03:19:34.033Z,13.33
2023-02-23T03:24:47.991Z,13.90
2023-02-23T03:30:05.840Z,13.70
2023-02-23T03:35:20.433Z,13.90
2023-02-23T03:40:35.313Z,13.10
2023-02-23T03:45:47.973Z,14.30
2023-02-23T03:50:59.766Z,14.07
2023-02-23T03:56:12.458Z,13.73
2023-02-23T04:01:25.715Z,13.60
2023-02-23T04:06:36.873Z,12.50
2023-02-23T04:11:49.496Z,13.33
2023-02-23T04:16:42.715Z,12.63
2023-02-23T04:21:35.276Z,12.80
2023-02-23T04:26:27.953Z,13.00
2023-02-23T04:31:22.730Z,13.00
2023-02-23T04:36:18.378Z,10.53
2023-02-23T04:41:10.893Z,11.60
2023-02-23T04:46:03.533Z,11.50
2023-02-23T04:50:56.397Z,10.13
2023-02-23T04:55:50.294Z,11.60
2023-02-23T05:00:42.875Z,11.00
2023-02-23T05:05:35.524Z,11.60
2023-02-23T05:10:28.679Z,11.63
2023-02-23T05:15:22.916Z,12.70
2023-02-23T05:20:16.006Z,11.77
2023-02-23T05:25:10.277Z,13.17
2023-02-23T05:30:02.940Z,14.87
2023-02-23T05:34:56.955Z,18.47
2023-02-23T05:39:49.549Z,16.30
2023-02-23T05:44:42.119Z,16.87
2023-02-23T05:49:34.694Z,19.20
2023-02-23T05:54:28.575Z,17.20
2023-02-23T05:59:21.192Z,19.33
2023-02-23T06:04:14.137Z,19.77
2023-02-23T06:09:06.839Z,16.00
2023-02-23T06:14:00.868Z,18.47
2023-02-23T06:18:53.446Z,16.67
2023-02-23T06:23:46.625Z,15.00
2023-02-23T06:28:39.199Z,13.47
2023-02-23T06:33:33.202Z,12.87
2023-02-23T06:38:26.084Z,14.20
2023-02-23T06:43:18.636Z,17.70
2023-02-23T06:48:11.248Z,19.93
2023-02-23T06:53:05.334Z,25.30
2023-02-23T06:57:58.349Z,27.97
2023-02-23T07:02:51.096Z,28.50
2023-02-23T07:07:44.009Z,33.60
2023-02-23T07:12:37.985Z,41.37
2023-02-23T07:17:30.610Z,36.20
2023-02-23T07:22:34.189Z,33.77
2023-02-23T07:27:27.606Z,23.33
2023-02-23T07:32:21.644Z,18.03
2023-02-23T07:37:14.312Z,25.70
2023-02-23T07:42:07.012Z,28.90
2023-02-23T07:46:59.611Z,28.17
2023-02-23T07:51:53.570Z,27.73
2023-02-23T07:56:46.261Z,26.07
2023-02-23T08:01:38.813Z,24.00
2023-02-23T08:06:31.532Z,25.43
2023-02-23T08:11:28.556Z,34.83
2023-02-23T08:16:21.212Z,26.47
2023-02-23T08:21:13.948Z,23.17
2023-02-23T08:26:06.516Z,23.83
2023-02-23T08:31:00.761Z,30.53
2023-02-23T08:35:54.193Z,38.50
2023-02-23T08:40:46.756Z,30.47
2023-02-23T08:45:39.687Z,23.90
2023-02-23T08:50:33.624Z,23.50
2023-02-23T08:55:26.174Z,22.27
2023-02-23T09:00:19.222Z,21.10
2023-02-23T09:05:11.883Z,21.40
2023-02-23T09:10:06.316Z,24.00
2023-02-23T09:14:58.875Z,22.97
2023-02-23T09:19:51.544Z,18.30
2023-02-23T09:24:44.152Z,15.03
2023-02-23T09:29:41.521Z,16.30
2023-02-23T09:34:36.319Z,16.43
2023-02-23T09:39:37.997Z,20.50
2023-02-23T09:44:38.041Z,20.80
2023-02-23T09:49:35.478Z,19.73
2023-02-23T09:54:31.171Z,16.37
2023-02-23T09:59:25.075Z,17.57
2023-02-23T10:04:19.913Z,16.80
2023-02-23T10:09:19.409Z,17.63
2023-02-23T10:14:17.140Z,19.70
2023-02-23T10:19:14.009Z,19.00
2023-02-23T10:24:07.985Z,19.20
2023-02-23T10:29:02.048Z,18.43
2023-02-23T10:33:55.976Z,17.03
2023-02-23T10:38:48.690Z,16.67
2023-02-23T10:43:41.326Z,16.63
2023-02-23T10:48:39.831Z,15.30
2023-02-23T10:53:35.721Z,14.87
2023-02-23T10:58:28.830Z,16.30
2023-02-23T11:03:25.404Z,16.17
2023-02-23T11:08:25.066Z,16.57
2023-02-23T11:13:22.602Z,15.13
2023-02-23T11:18:20.884Z,14.87
2023-02-23T11:23:18.124Z,13.80
2023-02-23T11:28:17.637Z,14.43
2023-02-23T11:33:17.355Z,13.70
2023-02-23T11:38:16.252Z,12.93
2023-02-23T11:43:09.924Z,12.63
2023-02-23T11:48:04.987Z,11.43
2023-02-23T11:53:01.236Z,12.57
2023-02-23T11:57:56.781Z,12.17
2023-02-23T12:02:51.914Z,12.13
2023-02-23T12:07:52.177Z,12.43
2023-02-23T12:12:51.793Z,12.80
2023-02-23T12:17:47.148Z,12.83
2023-02-23T12:22:40.833Z,12.03
2023-02-23T12:27:38.459Z,12.60
2023-02-23T12:32:39.978Z,12.90
2023-02-23T12:37:38.326Z,12.10
2023-02-23T12:42:36.893Z,11.50
2023-02-23T12:47:34.779Z,12.40
2023-02-23T12:52:30.041Z,12.00
2023-02-23T12:57:26.442Z,10.40
2023-02-23T13:02:22.707Z,10.57
2023-02-23T13:07:21.072Z,11.27
2023-02-23T13:12:17.351Z,11.73
2023-02-23T13:17:14.163Z,11.33
2023-02-23T13:22:16.687Z,11.10
2023-02-23T13:27:16.347Z,11.07
2023-02-23T13:32:12.634Z,11.80
2023-02-23T13:37:06.446Z,11.10
2023-02-23T13:42:06.408Z,11.30
2023-02-23T13:47:03.213Z,11.30
2023-02-23T13:51:57.344Z,11.33
2023-02-23T13:56:51.026Z,11.13
2023-02-23T14:01:45.124Z,11.40
2023-02-23T14:06:39.924Z,11.03
2023-02-23T14:11:50.790Z,11.50
2023-02-23T14:16:44.366Z,11.50
2023-02-23T14:21:44.048Z,10.40
2023-02-23T14:26:41.445Z,11.70
2023-02-23T14:31:35.708Z,11.40
2023-02-23T14:36:36.436Z,11.97
2023-02-23T14:41:41.686Z,11.70
2023-02-23T14:46:35.156Z,11.80
2023-02-23T14:51:33.383Z,12.50
2023-02-23T14:56:35.565Z,12.43
2023-02-23T15:01:37.319Z,13.87
2023-02-23T15:06:30.636Z,13.47
2023-02-23T15:11:23.176Z,14.50
2023-02-23T15:16:17.402Z,13.20
2023-02-23T15:21:12.687Z,13.93
2023-02-23T15:26:24.161Z,15.03
2023-02-23T15:31:17.381Z,15.77
2023-02-23T15:36:15.291Z,14.60
2023-02-23T15:41:10.271Z,15.47
2023-02-23T15:46:04.786Z,14.97
2023-02-23T15:50:58.374Z,14.60
2023-02-23T15:55:55.504Z,16.60
2023-02-23T16:00:51.417Z,15.63
2023-02-23T16:05:55.081Z,16.47
2023-02-23T16:10:48.160Z,17.03
2023-02-23T16:15:42.770Z,18.00
2023-02-23T16:20:38.314Z,18.13
2023-02-23T16:25:31.681Z,22.20
2023-02-23T16:30:34.362Z,19.90
2023-02-23T16:35:34.644Z,17.90
2023-02-23T16:40:27.713Z,23.00
2023-02-23T16:45:20.352Z,19.87
2023-02-23T16:50:20.187Z,20.37
2023-02-23T16:55:18.285Z,21.03
2023-02-23T17:00:18.035Z,22.93
2023-02-23T17:05:13.468Z,25.40
2023-02-23T17:10:06.665Z,32.63
2023-02-23T17:15:00.762Z,29.90
2023-02-23T17:19:53.416Z,35.40
2023-02-23T17:24:45.987Z,37.50
2023-02-23T17:29:38.671Z,34.63
2023-02-23T17:34:32.782Z,30.13
2023-02-23T17:39:28.020Z,28.90
2023-02-23T17:44:20.703Z,32.20
2023-02-23T17:49:13.307Z,36.00
2023-02-23T17:54:07.314Z,34.87
2023-02-23T17:58:59.959Z,44.50
2023-02-23T18:03:52.763Z,44.50
2023-02-23T18:08:45.587Z,37.17
2023-02-23T18:13:42.479Z,49.30
2023-02-23T18:18:35.345Z,43.10
2023-02-23T18:23:30.504Z,40.90
2023-02-23T18:28:23.952Z,39.30
2023-02-23T18:33:18.015Z,41.17
2023-02-23T18:38:12.009Z,44.90
2023-02-23T18:43:05.361Z,38.33
2023-02-23T18:47:57.909Z,38.30
2023-02-23T18:52:51.961Z,35.10
2023-02-23T18:57:44.737Z,37.00
2023-02-23T19:02:37.358Z,45.40
2023-02-23T19:07:30.506Z,45.40
2023-02-23T19:12:24.472Z,41.97
2023-02-23T19:17:17.058Z,40.60
2023-02-23T19:22:09.776Z,40.60
2023-02-23T19:27:02.378Z,35.40
2023-02-23T19:31:56.401Z,35.30
2023-02-23T19:36:50.218Z,36.87
2023-02-23T19:41:44.298Z,35.07
2023-02-23T19:46:37.632Z,35.67
2023-02-23T19:51:31.539Z,37.50
2023-02-23T19:56:24.864Z,37.57
2023-02-23T20:01:19.033Z,109.20
2023-02-23T20:06:13.350Z,34.93
2023-02-23T20:11:08.098Z,33.50
2023-02-23T20:16:01.481Z,33.20
2023-02-23T20:20:54.031Z,32.73
2023-02-23T20:25:46.674Z,33.10
2023-02-23T20:30:40.660Z,30.73
2023-02-23T20:35:33.837Z,32.97
2023-02-23T20:40:27.431Z,33.80
2023-02-23T20:45:20.971Z,32.77
2023-02-23T20:50:15.208Z,32.37
2023-02-23T20:55:08.676Z,29.73
2023-02-23T21:00:09.300Z,31.93
2023-02-23T21:05:02.119Z,31.47
2023-02-23T21:10:00.856Z,34.37
2023-02-23T21:14:53.652Z,36.33
2023-02-23T21:19:46.426Z,40.03
2023-02-23T21:24:40.900Z,37.17
2023-02-23T21:29:34.815Z,36.27
2023-02-23T21:34:27.462Z,48.23
2023-02-23T21:39:21.590Z,53.60
2023-02-23T21:44:14.278Z,55.47
2023-02-23T21:49:09.721Z,44.00
2023-02-23T21:54:02.738Z,47.17
2023-02-23T21:58:56.037Z,45.47
2023-02-23T22:03:48.991Z,45.73
2023-02-23T22:08:44.852Z,40.20
2023-02-23T22:13:37.437Z,36.73
2023-02-23T22:18:30.001Z,35.53
2023-02-23T22:23:22.558Z,37.03
2023-02-23T22:28:16.472Z,38.40
2023-02-23T22:33:09.182Z,36.83
2023-02-23T22:38:01.907Z,39.50
2023-02-23T22:42:54.866Z,25.83
2023-02-23T22:47:48.789Z,25.97
2023-02-23T22:52:42.995Z,21.00
2023-02-23T22:57:35.684Z,19.60
2023-02-23T23:02:32.003Z,23.10
2023-02-23T23:07:26.320Z,26.70
2023-02-23T23:12:18.989Z,26.97
2023-02-23T23:17:12.989Z,28.70
2023-02-23T23:22:06.218Z,27.30
2023-02-23T23:27:00.968Z,29.40
2023-02-23T23:31:55.290Z,28.43
2023-02-23T23:36:49.410Z,25.90
2023-02-23T23:41:43.080Z,30.10
2023-02-23T23:46:38.312Z,35.30
2023-02-23T23:51:32.520Z,37.27
2023-02-23T23:56:25.615Z,34.10
